createdAt,value
2022-10-01T00:02:09.610Z,12.90
2022-10-01T00:04:37.506Z,12.90
2022-10-01T00:07:09.375Z,12.90
2022-10-01T00:09:36.398Z,12.90
2022-10-01T00:12:03.558Z,12.90
2022-10-01T00:14:30.444Z,12.80
2022-10-01T00:16:57.343Z,12.80
2022-10-01T00:19:24.377Z,12.80
2022-10-01T00:21:51.255Z,12.80
2022-10-01T00:24:18.805Z,12.80
2022-10-01T00:26:46.279Z,12.80
2022-10-01T00:29:14.902Z,12.80
2022-10-01T00:31:42.695Z,12.70
2022-10-01T00:34:13.123Z,12.80
2022-10-01T00:36:39.996Z,12.70
2022-10-01T00:39:07.063Z,12.80
2022-10-01T00:41:35.428Z,12.70
2022-10-01T00:44:35.451Z,12.70
2022-10-01T00:47:20.586Z,12.70
2022-10-01T00:49:50.729Z,12.70
2022-10-01T00:52:26.041Z,12.60
2022-10-01T00:54:57.578Z,12.70
2022-10-01T00:57:26.786Z,12.70
2022-10-01T00:59:56.931Z,12.70
2022-10-01T01:02:24.001Z,12.80
2022-10-01T01:04:51.132Z,12.70
2022-10-01T01:07:18.537Z,12.70
2022-10-01T01:09:51.058Z,12.90
2022-10-01T01:12:40.436Z,12.90
2022-10-01T01:15:28.521Z,12.90
2022-10-01T01:18:09.342Z,12.90
2022-10-01T01:20:45.602Z,12.90
2022-10-01T01:23:15.645Z,13.00
2022-10-01T01:25:54.207Z,13.10
2022-10-01T01:28:35.069Z,13.10
2022-10-01T01:31:09.530Z,13.10
2022-10-01T01:33:39.433Z,13.00
2022-10-01T01:36:20.115Z,13.00
2022-10-01T01:38:51.991Z,13.10
2022-10-01T01:41:20.503Z,13.10
2022-10-01T01:43:51.355Z,13.10
2022-10-01T01:46:20.146Z,13.10
2022-10-01T01:48:51.001Z,13.00
2022-10-01T01:51:32.482Z,12.80
2022-10-01T01:54:00.340Z,12.70
2022-10-01T01:56:27.607Z,12.60
2022-10-01T01:58:54.571Z,12.60
2022-10-01T02:01:40.168Z,12.50
2022-10-01T02:04:19.281Z,12.30
2022-10-01T02:07:21.068Z,12.20
2022-10-01T02:10:09.820Z,12.00
2022-10-01T02:12:42.519Z,11.80
2022-10-01T02:15:37.084Z,11.70
2022-10-01T02:18:23.278Z,11.60
2022-10-01T02:20:56.352Z,11.50
2022-10-01T02:23:29.953Z,11.40
2022-10-01T02:26:01.616Z,11.20
2022-10-01T02:28:32.609Z,11.20
2022-10-01T02:31:02.041Z,11.10
2022-10-01T02:33:35.629Z,11.20
2022-10-01T02:36:06.199Z,11.10
2022-10-01T02:38:36.613Z,11.10
2022-10-01T02:41:08.075Z,11.00
2022-10-01T02:43:42.699Z,11.00
2022-10-01T02:46:21.557Z,10.90
2022-10-01T02:48:49.217Z,10.80
2022-10-01T02:51:37.856Z,10.80
2022-10-01T02:54:22.616Z,10.80
2022-10-01T02:57:08.900Z,10.80
2022-10-01T02:59:35.821Z,10.80
2022-10-01T03:02:03.031Z,10.70
2022-10-01T03:04:30.021Z,10.70
2022-10-01T03:07:03.383Z,10.80
2022-10-01T03:09:34.685Z,10.70
2022-10-01T03:12:01.913Z,10.70
2022-10-01T03:14:29.468Z,10.60
2022-10-01T03:16:56.359Z,10.60
2022-10-01T03:19:23.227Z,10.60
2022-10-01T03:21:50.090Z,10.60
2022-10-01T03:24:17.120Z,10.70
2022-10-01T03:26:45.253Z,10.60
2022-10-01T03:29:13.257Z,10.60
2022-10-01T03:31:40.200Z,10.60
2022-10-01T03:34:07.302Z,10.60
2022-10-01T03:36:34.431Z,10.70
2022-10-01T03:39:02.161Z,10.60
2022-10-01T03:41:29.135Z,10.60
2022-10-01T03:44:00.286Z,10.60
2022-10-01T03:46:27.598Z,10.50
2022-10-01T03:48:57.237Z,10.50
2022-10-01T03:51:24.356Z,10.50
2022-10-01T03:53:51.353Z,10.40
2022-10-01T03:56:18.647Z,10.50
2022-10-01T03:58:45.558Z,10.50
2022-10-01T04:01:12.477Z,10.60
2022-10-01T04:03:40.214Z,10.60
2022-10-01T04:06:09.592Z,10.70
2022-10-01T04:08:37.823Z,10.70
2022-10-01T04:11:05.974Z,10.80
2022-10-01T04:13:34.299Z,10.70
2022-10-01T04:16:05.303Z,10.80
2022-10-01T04:18:32.564Z,10.70
2022-10-01T04:20:59.539Z,10.70
2022-10-01T04:23:26.816Z,10.70
2022-10-01T04:25:53.841Z,10.60
2022-10-01T04:28:20.802Z,10.60
2022-10-01T04:30:47.794Z,10.60
2022-10-01T04:33:16.592Z,10.60
2022-10-01T04:35:44.259Z,10.60
2022-10-01T04:38:16.870Z,10.60
2022-10-01T04:40:44.136Z,10.60
2022-10-01T04:43:12.493Z,10.60
2022-10-01T04:45:39.813Z,10.50
2022-10-01T04:48:06.785Z,10.50
2022-10-01T04:50:33.832Z,10.60
2022-10-01T04:53:00.822Z,10.60
2022-10-01T04:55:27.750Z,10.70
2022-10-01T04:57:54.726Z,10.70
2022-10-01T05:00:26.756Z,10.90
2022-10-01T05:02:54.565Z,10.90
2022-10-01T05:05:23.850Z,11.00
2022-10-01T05:07:51.134Z,10.90
2022-10-01T05:10:20.767Z,11.00
2022-10-01T05:12:49.083Z,11.20
2022-10-01T05:15:17.665Z,11.10
2022-10-01T05:17:44.634Z,11.00
2022-10-01T05:20:17.623Z,11.00
2022-10-01T05:22:45.613Z,11.20
2022-10-01T05:25:12.715Z,11.20
2022-10-01T05:27:40.786Z,11.20
2022-10-01T05:30:10.520Z,11.40
2022-10-01T05:32:38.051Z,11.40
2022-10-01T05:35:08.496Z,11.40
2022-10-01T05:37:35.591Z,11.40
2022-10-01T05:40:03.743Z,11.50
2022-10-01T05:42:30.663Z,11.50
2022-10-01T05:44:57.551Z,11.50
2022-10-01T05:47:24.430Z,11.50
2022-10-01T05:49:51.527Z,11.50
2022-10-01T05:52:18.376Z,11.40
2022-10-01T05:54:45.308Z,11.40
2022-10-01T05:57:12.300Z,11.40
2022-10-01T05:59:40.269Z,11.30
2022-10-01T06:02:09.730Z,11.30
2022-10-01T06:04:41.055Z,11.40
2022-10-01T06:07:08.304Z,11.40
2022-10-01T06:09:35.217Z,11.40
2022-10-01T06:12:02.674Z,11.40
2022-10-01T06:14:29.749Z,11.40
2022-10-01T06:16:56.715Z,11.30
2022-10-01T06:19:23.776Z,11.30
2022-10-01T06:21:53.703Z,11.30
2022-10-01T06:24:20.592Z,11.20
2022-10-01T06:26:48.611Z,11.30
2022-10-01T06:29:15.474Z,11.30
2022-10-01T06:31:42.424Z,11.30
2022-10-01T06:34:09.531Z,11.30
2022-10-01T06:36:36.600Z,11.30
2022-10-01T06:39:03.484Z,11.30
2022-10-01T06:41:30.420Z,11.30
2022-10-01T06:43:57.377Z,11.30
2022-10-01T06:46:24.277Z,11.30
2022-10-01T06:48:51.354Z,11.40
2022-10-01T06:51:38.477Z,11.50
2022-10-01T06:54:05.508Z,11.50
2022-10-01T06:56:32.540Z,11.50
2022-10-01T06:58:59.432Z,11.60
2022-10-01T07:01:26.360Z,11.60
2022-10-01T07:03:54.234Z,11.60
2022-10-01T07:06:21.180Z,11.70
2022-10-01T07:08:51.333Z,11.80
2022-10-01T07:11:19.071Z,11.90
2022-10-01T07:13:46.009Z,12.10
2022-10-01T07:16:12.987Z,12.00
2022-10-01T07:18:40.030Z,12.10
2022-10-01T07:21:06.960Z,12.00
2022-10-01T07:23:33.833Z,12.00
2022-10-01T07:26:03.202Z,11.90
2022-10-01T07:28:31.227Z,12.00
2022-10-01T07:31:05.273Z,12.00
2022-10-01T07:33:32.222Z,12.10
2022-10-01T07:36:05.213Z,12.10
2022-10-01T07:38:35.242Z,12.10
2022-10-01T07:41:03.491Z,12.00
2022-10-01T07:43:32.182Z,12.10
2022-10-01T07:46:00.271Z,12.20
2022-10-01T07:48:28.111Z,12.20
2022-10-01T07:50:55.198Z,12.20
2022-10-01T07:53:23.959Z,12.20
2022-10-01T07:55:51.036Z,12.30
2022-10-01T07:58:18.790Z,12.30
2022-10-01T08:00:45.810Z,12.40
2022-10-01T08:03:13.016Z,12.40
2022-10-01T08:05:43.343Z,12.40
2022-10-01T08:08:10.344Z,12.40
2022-10-01T08:10:38.536Z,12.50
2022-10-01T08:13:14.552Z,12.50
2022-10-01T08:15:47.069Z,12.60
2022-10-01T08:18:14.475Z,12.80
2022-10-01T08:20:41.647Z,12.80
2022-10-01T08:23:14.154Z,12.70
2022-10-01T08:25:43.219Z,12.60
2022-10-01T08:28:11.528Z,12.70
2022-10-01T08:30:43.100Z,12.60
2022-10-01T08:33:14.569Z,12.80
2022-10-01T08:35:43.458Z,12.80
2022-10-01T08:38:11.759Z,12.90
2022-10-01T08:40:47.371Z,13.00
2022-10-01T08:43:34.221Z,13.10
2022-10-01T08:46:23.211Z,13.10
2022-10-01T08:49:02.489Z,13.40
2022-10-01T08:51:36.245Z,14.20
2022-10-01T08:54:37.438Z,17.20
2022-10-01T08:57:09.589Z,16.50
2022-10-01T08:59:44.764Z,15.80
2022-10-01T09:02:33.072Z,16.20
2022-10-01T09:05:03.659Z,16.50
2022-10-01T09:07:55.350Z,16.80
2022-10-01T09:11:01.367Z,16.80
2022-10-01T09:13:49.927Z,17.80
2022-10-01T09:16:20.063Z,22.30
2022-10-01T09:19:09.505Z,20.50
2022-10-01T09:22:04.474Z,18.20
2022-10-01T09:24:50.931Z,17.60
2022-10-01T09:27:24.837Z,16.60
2022-10-01T09:29:58.274Z,15.80
2022-10-01T09:32:31.844Z,16.00
2022-10-01T09:35:05.852Z,16.20
2022-10-01T09:37:56.239Z,15.60
2022-10-01T09:40:57.183Z,15.30
2022-10-01T09:43:30.682Z,15.60
2022-10-01T09:45:58.249Z,15.20
2022-10-01T09:48:49.442Z,15.20
2022-10-01T09:51:22.231Z,15.40
2022-10-01T09:54:20.765Z,16.50
2022-10-01T09:57:16.162Z,19.90
2022-10-01T09:59:50.306Z,18.60
2022-10-01T10:02:31.464Z,17.20
2022-10-01T10:05:07.297Z,16.50
2022-10-01T10:07:35.182Z,16.80
2022-10-01T10:10:35.909Z,17.00
2022-10-01T10:13:11.132Z,16.80
2022-10-01T10:15:58.668Z,16.50
2022-10-01T10:18:36.388Z,16.50
2022-10-01T10:21:10.821Z,16.30
2022-10-01T10:23:50.372Z,16.20
2022-10-01T10:26:28.473Z,16.20
2022-10-01T10:28:58.520Z,16.60
2022-10-01T10:31:28.295Z,16.80
2022-10-01T10:34:18.078Z,16.90
2022-10-01T10:36:46.684Z,16.90
2022-10-01T10:39:29.348Z,16.40
2022-10-01T10:41:58.507Z,16.40
2022-10-01T10:44:30.205Z,16.40
2022-10-01T10:47:00.851Z,16.40
2022-10-01T10:49:31.674Z,16.50
2022-10-01T10:52:01.112Z,16.40
2022-10-01T10:54:40.051Z,16.40
2022-10-01T10:57:28.006Z,16.30
2022-10-01T11:00:19.409Z,16.10
2022-10-01T11:03:04.291Z,16.20
2022-10-01T11:05:33.041Z,16.50
2022-10-01T11:08:03.250Z,16.80
2022-10-01T11:10:54.781Z,18.70
2022-10-01T11:13:27.784Z,19.90
2022-10-01T11:16:24.323Z,20.50
2022-10-01T11:19:09.945Z,20.30
2022-10-01T11:21:54.098Z,19.20
2022-10-01T11:24:37.848Z,19.60
2022-10-01T11:27:36.269Z,18.70
2022-10-01T11:30:20.406Z,18.40
2022-10-01T11:32:50.210Z,18.20
2022-10-01T11:35:42.162Z,17.90
2022-10-01T11:38:27.472Z,19.00
2022-10-01T11:41:26.493Z,20.70
2022-10-01T11:44:18.220Z,20.50
2022-10-01T11:47:01.658Z,20.20
2022-10-01T11:49:50.427Z,20.30
2022-10-01T11:52:17.329Z,21.10
2022-10-01T11:55:30.390Z,21.60
2022-10-01T11:58:36.855Z,21.50
2022-10-01T12:01:06.366Z,20.50
2022-10-01T12:03:45.751Z,20.80
2022-10-01T12:06:14.848Z,20.60
2022-10-01T12:08:48.205Z,20.00
2022-10-01T12:11:23.464Z,19.30
2022-10-01T12:14:04.402Z,18.30
2022-10-01T12:16:52.109Z,17.50
2022-10-01T12:19:33.483Z,17.00
2022-10-01T12:22:24.768Z,16.90
2022-10-01T12:24:52.854Z,16.60
2022-10-01T12:27:41.402Z,16.40
2022-10-01T12:30:14.278Z,16.10
2022-10-01T12:33:13.480Z,16.00
2022-10-01T12:35:59.019Z,15.80
2022-10-01T12:38:28.692Z,15.30
2022-10-01T12:41:19.335Z,15.30
2022-10-01T12:44:13.747Z,15.10
2022-10-01T12:47:12.436Z,14.80
2022-10-01T12:49:49.905Z,14.80
2022-10-01T12:52:27.975Z,14.80
2022-10-01T12:54:57.713Z,14.40
2022-10-01T12:57:57.854Z,14.10
2022-10-01T13:00:27.426Z,14.10
2022-10-01T13:03:03.309Z,14.10
2022-10-01T13:05:36.324Z,14.00
2022-10-01T13:08:18.481Z,14.20
2022-10-01T13:11:32.728Z,14.30
2022-10-01T13:14:00.931Z,14.30
2022-10-01T13:16:46.199Z,14.80
2022-10-01T13:19:36.052Z,15.10
2022-10-01T13:22:41.800Z,15.10
2022-10-01T13:25:25.053Z,15.20
2022-10-01T13:27:59.616Z,15.50
2022-10-01T13:30:32.829Z,15.60
2022-10-01T13:33:01.122Z,15.50
2022-10-01T13:35:39.389Z,15.70
2022-10-01T13:38:30.367Z,15.60
2022-10-01T13:41:16.465Z,15.70
2022-10-01T13:43:59.216Z,15.80
2022-10-01T13:46:31.114Z,15.60
2022-10-01T13:49:13.656Z,15.60
2022-10-01T13:51:42.308Z,15.70
2022-10-01T13:54:22.460Z,15.80
2022-10-01T13:56:49.373Z,15.80
2022-10-01T13:59:37.129Z,15.80
2022-10-01T14:02:34.705Z,15.70
2022-10-01T14:05:27.223Z,15.70
2022-10-01T14:08:11.505Z,15.80
2022-10-01T14:11:06.093Z,15.80
2022-10-01T14:14:01.490Z,16.10
2022-10-01T14:16:30.298Z,16.50
2022-10-01T14:18:57.548Z,16.50
2022-10-01T14:21:37.292Z,16.60
2022-10-01T14:24:21.101Z,16.60
2022-10-01T14:27:09.468Z,16.40
2022-10-01T14:29:45.315Z,16.20
2022-10-01T14:32:35.450Z,16.00
2022-10-01T14:35:08.414Z,16.00
2022-10-01T14:37:41.378Z,16.00
2022-10-01T14:40:21.080Z,16.00
2022-10-01T14:43:01.747Z,16.00
2022-10-01T14:45:29.982Z,16.10
2022-10-01T14:48:05.259Z,16.10
2022-10-01T14:50:35.166Z,16.10
2022-10-01T14:53:02.236Z,16.10
2022-10-01T14:55:30.634Z,16.20
2022-10-01T14:57:58.376Z,16.30
2022-10-01T15:00:27.661Z,16.60
2022-10-01T15:03:17.569Z,17.10
2022-10-01T15:05:46.556Z,17.30
2022-10-01T15:08:21.270Z,17.20
2022-10-01T15:10:55.398Z,17.00
2022-10-01T15:13:27.556Z,16.70
2022-10-01T15:15:55.637Z,16.50
2022-10-01T15:18:23.626Z,16.40
2022-10-01T15:21:06.402Z,16.30
2022-10-01T15:23:38.434Z,16.40
2022-10-01T15:26:11.327Z,16.30
2022-10-01T15:28:38.223Z,16.30
2022-10-01T15:31:06.645Z,16.30
2022-10-01T15:33:40.452Z,16.30
2022-10-01T15:36:17.515Z,16.30
2022-10-01T15:38:46.663Z,16.20
2022-10-01T15:41:32.350Z,16.20
2022-10-01T15:44:03.416Z,16.20
2022-10-01T15:46:35.263Z,16.30
2022-10-01T15:49:20.353Z,16.20
2022-10-01T15:52:22.280Z,16.30
2022-10-01T15:54:59.041Z,16.10
2022-10-01T15:57:28.195Z,16.10
2022-10-01T15:59:58.067Z,16.10
2022-10-01T16:02:30.994Z,16.00
2022-10-01T16:05:18.591Z,16.00
2022-10-01T16:07:56.274Z,16.00
2022-10-01T16:10:34.100Z,15.90
2022-10-01T16:13:31.865Z,15.90
2022-10-01T16:16:10.995Z,15.80
2022-10-01T16:18:39.291Z,15.70
2022-10-01T16:21:09.276Z,15.60
2022-10-01T16:23:49.493Z,15.50
2022-10-01T16:26:32.310Z,15.40
2022-10-01T16:29:14.696Z,15.30
2022-10-01T16:31:44.456Z,15.20
2022-10-01T16:34:17.191Z,15.20
2022-10-01T16:36:46.562Z,15.10
2022-10-01T16:39:15.134Z,15.00
2022-10-01T16:41:44.741Z,14.90
2022-10-01T16:44:13.879Z,14.80
2022-10-01T16:46:41.347Z,14.80
2022-10-01T16:49:15.695Z,14.80
2022-10-01T16:51:43.007Z,15.00
2022-10-01T16:54:23.624Z,15.00
2022-10-01T16:56:52.346Z,15.10
2022-10-01T16:59:22.368Z,15.10
2022-10-01T17:01:53.582Z,15.00
2022-10-01T17:04:21.902Z,15.00
2022-10-01T17:06:48.838Z,14.90
2022-10-01T17:09:15.703Z,15.00
2022-10-01T17:11:43.517Z,14.90
2022-10-01T17:14:16.723Z,14.90
2022-10-01T17:16:44.135Z,14.90
2022-10-01T17:19:13.235Z,14.70
2022-10-01T17:21:40.687Z,14.60
2022-10-01T17:24:10.838Z,14.50
2022-10-01T17:26:42.501Z,14.50
2022-10-01T17:29:10.159Z,14.50
2022-10-01T17:31:40.634Z,14.50
2022-10-01T17:34:08.372Z,14.60
2022-10-01T17:36:35.500Z,14.70
2022-10-01T17:39:02.646Z,14.70
2022-10-01T17:41:29.702Z,14.50
2022-10-01T17:43:58.055Z,14.60
2022-10-01T17:46:25.006Z,14.90
2022-10-01T17:48:52.149Z,14.80
2022-10-01T17:51:19.857Z,14.70
2022-10-01T17:53:47.025Z,14.20
2022-10-01T17:56:18.475Z,14.10
2022-10-01T17:58:46.138Z,14.00
2022-10-01T18:01:19.745Z,13.90
2022-10-01T18:03:47.122Z,13.80
2022-10-01T18:06:15.467Z,13.80
2022-10-01T18:08:55.186Z,13.80
2022-10-01T18:11:24.237Z,13.70
2022-10-01T18:13:52.642Z,13.60
2022-10-01T18:16:19.912Z,13.30
2022-10-01T18:21:34.523Z,12.90
2022-10-01T18:24:04.748Z,12.70
2022-10-01T18:26:33.095Z,12.60
2022-10-01T18:29:00.308Z,12.50
2022-10-01T18:31:35.733Z,12.40
2022-10-01T18:34:06.171Z,12.30
2022-10-01T18:36:42.714Z,12.30
2022-10-01T18:39:33.828Z,12.20
2022-10-01T18:42:16.267Z,12.10
2022-10-01T18:44:43.517Z,12.10
2022-10-01T18:47:35.300Z,12.00
2022-10-01T18:50:21.584Z,12.00
2022-10-01T18:53:36.410Z,12.00
2022-10-01T18:56:33.535Z,12.00
2022-10-01T18:59:14.363Z,12.00
2022-10-01T19:02:32.205Z,11.90
2022-10-01T19:05:01.922Z,11.90
2022-10-01T19:07:31.987Z,11.90
2022-10-01T19:10:25.211Z,11.90
2022-10-01T19:13:14.152Z,12.00
2022-10-01T19:15:47.918Z,12.00
2022-10-01T19:18:37.509Z,12.00
2022-10-01T19:21:21.167Z,12.00
2022-10-01T19:23:54.136Z,11.90
2022-10-01T19:26:58.741Z,11.90
2022-10-01T19:29:38.813Z,11.90
2022-10-01T19:32:38.055Z,11.80
2022-10-01T19:35:26.087Z,11.90
2022-10-01T19:37:57.794Z,11.80
2022-10-01T19:41:03.783Z,11.90
2022-10-01T19:43:39.364Z,12.10
2022-10-01T19:46:19.242Z,12.20
2022-10-01T19:49:08.523Z,12.30
2022-10-01T19:52:10.033Z,12.40
2022-10-01T19:54:42.873Z,12.40
2022-10-01T19:57:13.343Z,12.60
2022-10-01T19:59:41.238Z,12.70
2022-10-01T20:02:27.594Z,12.60
2022-10-01T20:05:02.175Z,12.60
2022-10-01T20:07:35.536Z,12.70
2022-10-01T20:10:38.371Z,12.70
2022-10-01T20:13:24.393Z,12.60
2022-10-01T20:16:15.779Z,12.40
2022-10-01T20:19:00.765Z,12.20
2022-10-01T20:21:45.854Z,12.10
2022-10-01T20:24:31.558Z,12.00
2022-10-01T20:27:27.988Z,12.00
2022-10-01T20:30:04.909Z,11.80
2022-10-01T20:32:47.476Z,11.80
2022-10-01T20:35:23.860Z,11.80
2022-10-01T20:38:23.982Z,11.80
2022-10-01T20:40:56.416Z,11.70
2022-10-01T20:43:49.103Z,11.70
2022-10-01T20:46:36.361Z,11.70
2022-10-01T20:49:24.503Z,11.70
2022-10-01T20:52:17.341Z,11.70
2022-10-01T20:54:48.181Z,11.90
2022-10-01T20:58:06.299Z,11.90
2022-10-01T21:00:37.353Z,11.30
2022-10-01T21:03:29.373Z,11.90
2022-10-01T21:06:13.657Z,11.80
2022-10-01T21:09:25.344Z,11.70
2022-10-01T21:12:08.489Z,11.70
2022-10-01T21:14:53.745Z,11.70
2022-10-01T21:17:54.363Z,11.60
2022-10-01T21:20:44.123Z,11.50
2022-10-01T21:23:16.676Z,11.50
2022-10-01T21:25:54.826Z,11.50
2022-10-01T21:28:33.835Z,11.60
2022-10-01T21:31:45.473Z,11.70
2022-10-01T21:34:17.827Z,11.80
2022-10-01T21:37:03.365Z,11.60
2022-10-01T21:39:40.337Z,11.60
2022-10-01T21:42:38.935Z,11.40
2022-10-01T21:45:39.196Z,11.50
2022-10-01T21:48:24.990Z,11.50
2022-10-01T21:51:01.212Z,11.50
2022-10-01T21:53:29.265Z,11.60
2022-10-01T21:56:08.237Z,11.60
2022-10-01T21:58:50.117Z,11.40
2022-10-01T22:01:44.817Z,11.50
2022-10-01T22:04:27.641Z,11.60
2022-10-01T22:07:12.882Z,11.40
2022-10-01T22:09:57.389Z,11.40
2022-10-01T22:12:30.820Z,11.50
2022-10-01T22:14:59.667Z,11.50
2022-10-01T22:17:33.145Z,11.40
2022-10-01T22:20:06.911Z,11.30
2022-10-01T22:22:38.358Z,11.20
2022-10-01T22:25:08.256Z,11.10
2022-10-01T22:28:04.553Z,10.90
2022-10-01T22:30:36.920Z,10.80
2022-10-01T22:33:16.484Z,10.70
2022-10-01T22:35:46.419Z,10.60
2022-10-01T22:38:54.324Z,10.40
2022-10-01T22:41:35.360Z,10.30
2022-10-01T22:44:17.690Z,10.40
2022-10-01T22:47:12.159Z,10.60
2022-10-01T22:49:57.083Z,10.90
2022-10-01T22:52:51.107Z,10.90
2022-10-01T22:55:36.839Z,11.00
2022-10-01T22:58:31.349Z,11.10
2022-10-01T23:01:17.996Z,11.20
2022-10-01T23:04:10.460Z,11.10
2022-10-01T23:06:59.633Z,11.20
2022-10-01T23:09:38.902Z,11.30
2022-10-01T23:12:33.882Z,11.30
2022-10-01T23:15:54.336Z,11.60
2022-10-01T23:18:35.196Z,11.40
2022-10-01T23:21:27.018Z,11.40
2022-10-01T23:24:40.481Z,11.40
2022-10-01T23:27:26.122Z,11.50
2022-10-01T23:29:59.529Z,11.40
2022-10-01T23:33:06.947Z,11.50
2022-10-01T23:35:44.819Z,11.50
2022-10-01T23:38:27.829Z,11.50
2022-10-01T23:40:59.929Z,11.50
2022-10-01T23:43:40.264Z,11.50
2022-10-01T23:46:22.762Z,11.40
2022-10-01T23:49:04.801Z,11.30
2022-10-01T23:51:38.543Z,11.50
2022-10-01T23:54:53.975Z,11.50
2022-10-01T23:57:28.430Z,11.30
